Time;durP1;ratioP1;P1;durP2;ratioP2;P2;SDS_P1;SDS_P2;PMS_P1;PMS_P2;Temp;Humidity;BMP_temperature;BMP_pressure;BME280_temperature;BME280_humidity;BME280_pressure;Samples;Min_cycle;Max_cycle;Signal;HPM_P1;HPM_P2
2022/05/14 00:00:58;;;;;;;12.10;3.67;;;13.30;99.90;;;;;;5017816;28;20055;-66
2022/05/14 00:03:25;;;;;;;13.05;3.10;;;13.30;99.90;;;;;;5042900;28;20104;-66
2022/05/14 00:05:53;;;;;;;9.20;2.53;;;13.30;99.90;;;;;;5032136;28;20048;-66
2022/05/14 00:08:21;;;;;;;8.00;2.60;;;13.30;99.90;;;;;;5042107;28;20644;-66
2022/05/14 00:13:31;;;;;;;8.55;3.00;;;13.20;99.90;;;;;;5038096;28;20041;-66
2022/05/14 00:15:57;;;;;;;8.45;3.08;;;13.30;99.90;;;;;;5033876;28;20386;-66
2022/05/14 00:18:23;;;;;;;14.00;3.73;;;13.30;99.90;;;;;;5037599;28;20333;-65
2022/05/14 00:20:51;;;;;;;12.63;2.90;;;13.30;99.90;;;;;;5035401;28;20758;-67
2022/05/14 00:23:17;;;;;;;11.65;3.15;;;13.30;99.90;;;;;;5033051;28;20052;-66
2022/05/14 00:25:43;;;;;;;12.02;3.45;;;13.30;99.90;;;;;;5034539;28;20032;-67
2022/05/14 00:28:09;;;;;;;8.27;2.97;;;13.30;99.90;;;;;;5032259;28;20164;-66
2022/05/14 00:30:36;;;;;;;;;;;13.30;99.90;;;;;;5029632;28;20041;-66
2022/05/14 00:33:03;;;;;;;8.45;2.75;;;13.20;99.90;;;;;;5036981;28;19921;-67
2022/05/14 00:35:29;;;;;;;11.82;2.85;;;13.20;99.90;;;;;;5021466;28;20135;-66
2022/05/14 00:37:55;;;;;;;8.13;2.78;;;13.20;99.90;;;;;;5035259;28;20163;-66
2022/05/14 00:40:32;;;;;;;6.80;2.65;;;13.20;99.90;;;;;;5033835;28;20083;-66
2022/05/14 00:42:59;;;;;;;9.43;2.60;;;13.10;99.90;;;;;;5034923;28;20056;-66
2022/05/14 00:45:25;;;;;;;11.38;3.03;;;13.20;99.90;;;;;;5031502;28;20465;-66
2022/05/14 00:47:54;;;;;;;13.60;3.15;;;13.10;99.90;;;;;;5034150;28;20183;-66
2022/05/14 00:50:46;;;;;;;11.13;3.08;;;13.20;99.90;;;;;;5031010;28;20045;-67
2022/05/14 00:53:34;;;;;;;9.48;2.97;;;13.10;99.90;;;;;;5033866;28;20144;-66
2022/05/14 00:56:03;;;;;;;12.93;4.13;;;13.10;99.90;;;;;;5038264;28;20042;-66
2022/05/14 00:58:47;;;;;;;16.10;2.97;;;13.10;99.90;;;;;;5020741;28;20060;-66
2022/05/14 01:01:13;;;;;;;14.32;3.85;;;13.10;99.90;;;;;;5044191;28;20040;-67
2022/05/14 01:03:39;;;;;;;13.57;2.67;;;13.10;99.90;;;;;;5041350;28;20052;-67
2022/05/14 01:06:08;;;;;;;9.43;2.80;;;13.10;99.90;;;;;;5036381;28;20131;-66
2022/05/14 01:08:35;;;;;;;11.80;2.85;;;13.10;99.90;;;;;;5041722;28;20447;-66
2022/05/14 01:11:01;;;;;;;13.20;3.55;;;13.10;99.90;;;;;;5038524;28;20105;-67
2022/05/14 01:13:27;;;;;;;10.07;3.70;;;13.10;99.90;;;;;;5042851;28;20044;-66
2022/05/14 01:15:57;;;;;;;13.13;3.20;;;13.10;99.90;;;;;;5026268;28;20056;-66
2022/05/14 01:18:26;;;;;;;12.30;3.33;;;13.10;99.90;;;;;;5041660;28;20114;-66
2022/05/14 01:20:57;;;;;;;16.15;3.70;;;13.10;99.90;;;;;;5027695;28;20056;-66
2022/05/14 01:23:32;;;;;;;15.65;3.28;;;13.00;99.90;;;;;;5037281;28;20049;-67
2022/05/14 01:26:29;;;;;;;9.10;3.13;;;13.00;99.90;;;;;;5042499;28;20048;-67
2022/05/14 01:29:01;;;;;;;11.75;3.20;;;13.00;99.90;;;;;;5023406;28;20404;-66
2022/05/14 01:31:27;;;;;;;10.60;3.00;;;13.00;99.90;;;;;;5038425;28;20045;-66
2022/05/14 01:33:55;;;;;;;13.52;3.33;;;13.00;99.90;;;;;;5023220;28;20037;-66
2022/05/14 01:36:21;;;;;;;11.63;3.75;;;13.00;99.90;;;;;;5042785;28;20041;-66
2022/05/14 01:38:46;;;;;;;11.10;3.47;;;12.90;99.90;;;;;;5038320;28;20029;-66
2022/05/14 01:41:12;;;;;;;11.17;3.67;;;12.90;99.90;;;;;;5016050;28;20043;-67
2022/05/14 01:43:38;;;;;;;16.60;3.33;;;12.90;99.90;;;;;;5039983;28;20079;-67
2022/05/14 01:46:04;;;;;;;12.18;3.38;;;12.90;99.90;;;;;;5022470;28;20055;-67
2022/05/14 01:48:30;;;;;;;7.82;2.70;;;12.80;99.90;;;;;;5034286;28;20216;-66
2022/05/14 01:50:56;;;;;;;16.70;2.88;;;12.90;99.90;;;;;;5038458;28;20416;-67
2022/05/14 01:53:21;;;;;;;13.53;2.97;;;12.80;99.90;;;;;;5041575;28;20404;-66
2022/05/14 01:55:47;;;;;;;17.17;3.57;;;12.80;99.90;;;;;;5040079;28;20037;-66
2022/05/14 02:00:58;;;;;;;7.88;3.20;;;12.80;99.90;;;;;;5039993;28;20166;-66
2022/05/14 02:03:23;;;;;;;14.95;3.38;;;12.80;99.90;;;;;;5038906;28;20050;-72
2022/05/14 02:05:49;;;;;;;15.10;3.83;;;12.70;99.90;;;;;;5017993;28;20095;-66
2022/05/14 02:08:15;;;;;;;8.20;3.30;;;12.70;99.90;;;;;;5044861;28;20364;-66
2022/05/14 02:10:40;;;;;;;10.40;3.10;;;12.70;99.90;;;;;;5021657;28;20099;-66
2022/05/14 02:13:06;;;;;;;11.30;3.53;;;12.70;99.90;;;;;;5025353;28;20311;-66
2022/05/14 02:15:32;;;;;;;21.57;3.40;;;12.70;99.90;;;;;;5036473;28;20786;-67
2022/05/14 02:17:57;;;;;;;15.77;4.07;;;12.60;99.90;;;;;;5043805;28;20291;-73
2022/05/14 02:20:26;;;;;;;13.18;4.47;;;12.70;99.90;;;;;;5009660;28;20796;-73
2022/05/14 02:22:52;;;;;;;14.10;3.42;;;12.70;99.90;;;;;;5035189;28;20375;-67
2022/05/14 02:25:19;;;;;;;14.27;3.97;;;12.60;99.90;;;;;;5030226;28;20064;-67
2022/05/14 02:27:45;;;;;;;13.60;3.53;;;12.60;99.90;;;;;;5039157;28;20040;-67
2022/05/14 02:30:12;;;;;;;18.23;3.83;;;12.60;99.90;;;;;;5018491;28;20040;-67
2022/05/14 02:32:38;;;;;;;17.13;3.20;;;12.60;99.90;;;;;;5040207;28;20037;-67
2022/05/14 02:35:04;;;;;;;16.48;3.42;;;12.60;99.90;;;;;;5032893;28;20041;-66
2022/05/14 02:37:30;;;;;;;14.10;4.95;;;12.50;99.90;;;;;;5035887;28;20076;-67
2022/05/14 02:39:56;;;;;;;14.20;3.40;;;12.50;99.90;;;;;;5039873;28;20106;-67
2022/05/14 02:42:22;;;;;;;14.00;3.80;;;12.50;99.90;;;;;;5148823;22;20417;-67
2022/05/14 02:44:49;;;;;;;15.07;3.60;;;12.50;99.90;;;;;;5066457;28;20051;-67
2022/05/14 02:47:15;;;;;;;12.55;3.60;;;12.40;99.90;;;;;;5084826;28;20040;-68
2022/05/14 02:49:41;;;;;;;10.23;3.63;;;12.40;99.90;;;;;;5066727;28;20036;-67
2022/05/14 02:52:07;;;;;;;15.30;4.13;;;12.40;99.90;;;;;;5084591;28;20088;-67
2022/05/14 02:54:34;;;;;;;14.15;4.28;;;12.40;99.90;;;;;;5070015;28;20036;-68
2022/05/14 02:56:59;;;;;;;;;;;12.40;99.90;;;;;;5085384;28;20040;-68
2022/05/14 02:59:25;;;;;;;12.10;3.90;;;12.30;99.90;;;;;;5064480;28;20477;-68
2022/05/14 03:01:50;;;;;;;14.00;3.67;;;12.30;99.90;;;;;;5081839;28;20043;-68
2022/05/14 03:04:23;;;;;;;13.77;4.23;;;12.30;99.90;;;;;;5068289;28;20044;-68
2022/05/14 03:06:50;;;;;;;18.80;4.90;;;12.30;99.90;;;;;;5084629;28;20130;-67
2022/05/14 03:09:16;;;;;;;19.90;4.90;;;12.20;99.90;;;;;;5070862;28;20044;-67
2022/05/14 03:11:42;;;;;;;24.33;4.50;;;12.30;99.90;;;;;;5068512;28;20043;-68
2022/05/14 03:14:07;;;;;;;15.48;4.00;;;12.20;99.90;;;;;;5084624;28;20032;-68
2022/05/14 03:16:33;;;;;;;14.57;3.87;;;12.20;99.90;;;;;;5069833;28;20044;-68
2022/05/14 03:18:58;;;;;;;17.20;4.35;;;12.20;99.90;;;;;;5069042;28;20130;-67
2022/05/14 03:21:24;;;;;;;13.83;4.70;;;12.20;99.90;;;;;;5069632;28;20074;-67
2022/05/14 03:23:50;;;;;;;11.13;4.53;;;12.20;99.90;;;;;;5068083;28;20040;-67
2022/05/14 03:26:15;;;;;;;13.10;4.70;;;12.10;99.90;;;;;;5081012;28;20032;-68
2022/05/14 03:28:41;;;;;;;15.37;4.17;;;12.20;99.90;;;;;;5068596;28;20282;-67
2022/05/14 03:31:07;;;;;;;15.98;4.28;;;12.20;99.90;;;;;;5087625;28;20043;-67
2022/05/14 03:33:33;;;;;;;25.13;3.95;;;12.10;99.90;;;;;;5069503;28;20032;-67
2022/05/14 03:35:58;;;;;;;19.03;4.30;;;12.10;99.90;;;;;;5053174;28;20089;-68
2022/05/14 03:38:24;;;;;;;17.20;3.83;;;12.10;99.90;;;;;;5069629;28;20392;-68
2022/05/14 03:40:50;;;;;;;8.93;4.22;;;12.10;99.90;;;;;;5087549;28;20690;-68
2022/05/14 03:43:16;;;;;;;20.05;3.97;;;12.10;99.90;;;;;;5085842;28;20064;-68
2022/05/14 03:45:42;;;;;;;13.88;4.30;;;12.10;99.90;;;;;;5086151;28;20055;-68
2022/05/14 03:48:08;;;;;;;16.40;3.95;;;12.10;99.90;;;;;;5087641;28;20500;-68
2022/05/14 03:50:34;;;;;;;20.83;4.47;;;12.10;99.90;;;;;;5087553;28;20484;-68
2022/05/14 03:52:59;;;;;;;17.52;4.30;;;12.10;99.90;;;;;;5066897;28;20035;-68
2022/05/14 03:55:25;;;;;;;15.83;4.37;;;12.10;99.90;;;;;;5086379;28;20079;-68
2022/05/14 03:57:51;;;;;;;16.13;3.73;;;12.10;99.90;;;;;;5086089;28;20139;-69
2022/05/14 04:00:19;;;;;;;20.40;3.90;;;12.00;99.90;;;;;;5064528;28;20465;-68
2022/05/14 04:02:45;;;;;;;14.07;3.15;;;12.00;99.90;;;;;;5084098;28;20082;-67
2022/05/14 04:05:11;;;;;;;13.48;3.70;;;12.00;99.90;;;;;;5076853;28;20078;-68
2022/05/14 04:07:37;;;;;;;14.63;4.05;;;12.00;99.90;;;;;;5086159;28;20487;-67
2022/05/14 04:10:04;;;;;;;16.48;5.45;;;12.00;99.90;;;;;;5085369;28;20036;-68
2022/05/14 04:12:30;;;;;;;19.77;4.20;;;12.10;99.90;;;;;;5084552;28;20484;-68
2022/05/14 04:14:55;;;;;;;18.38;4.05;;;12.00;99.90;;;;;;5066568;28;20039;-68
2022/05/14 04:17:21;;;;;;;16.33;4.43;;;12.00;99.90;;;;;;5084385;28;20115;-68
2022/05/14 04:19:47;;;;;;;21.17;3.77;;;12.00;99.90;;;;;;5087591;28;20356;-68
2022/05/14 04:22:12;;;;;;;11.57;3.73;;;12.00;99.90;;;;;;5080327;28;20029;-67
2022/05/14 04:24:38;;;;;;;13.30;4.73;;;12.00;99.90;;;;;;5087219;28;20040;-69
2022/05/14 04:27:04;;;;;;;18.15;4.25;;;12.00;99.90;;;;;;5078645;28;20044;-68
2022/05/14 04:29:29;;;;;;;15.70;4.35;;;12.00;99.90;;;;;;5087142;28;20047;-68
2022/05/14 04:31:55;;;;;;;13.37;5.50;;;12.00;99.90;;;;;;5085083;28;20557;-68
2022/05/14 04:34:21;;;;;;;17.20;3.83;;;12.00;99.90;;;;;;5087210;28;20450;-68
2022/05/14 04:36:46;;;;;;;9.77;3.47;;;11.90;99.90;;;;;;5067897;28;20043;-68
2022/05/14 04:39:12;;;;;;;17.27;4.53;;;12.00;99.90;;;;;;5090069;28;20345;-69
2022/05/14 04:41:38;;;;;;;10.15;4.07;;;11.90;99.90;;;;;;5067960;28;20048;-68
2022/05/14 04:44:04;;;;;;;13.85;3.40;;;11.90;99.90;;;;;;5090265;28;20051;-68
2022/05/14 04:46:35;;;;;;;19.52;4.50;;;12.00;99.90;;;;;;5073678;28;20400;-68
2022/05/14 04:49:01;;;;;;;16.73;4.57;;;11.90;99.90;;;;;;5072482;28;20058;-68
2022/05/14 04:51:26;;;;;;;15.10;4.18;;;12.00;99.90;;;;;;5090635;28;20451;-68
2022/05/14 04:53:52;;;;;;;12.20;3.90;;;12.00;99.90;;;;;;5087068;28;20036;-69
2022/05/14 04:56:18;;;;;;;21.13;4.40;;;12.00;99.90;;;;;;5090488;28;20321;-68
2022/05/14 04:58:43;;;;;;;14.57;4.30;;;12.00;99.90;;;;;;5072568;28;20723;-68
2022/05/14 05:01:09;;;;;;;10.70;3.92;;;12.00;99.90;;;;;;5073116;28;20052;-68
2022/05/14 05:03:36;;;;;;;12.23;3.67;;;12.00;99.90;;;;;;5089585;28;20082;-68
2022/05/14 05:06:01;;;;;;;21.42;4.63;;;12.00;99.90;;;;;;5067091;28;20051;-68
2022/05/14 05:08:30;;;;;;;17.60;3.38;;;12.10;99.90;;;;;;5070371;28;20392;-68
2022/05/14 05:10:57;;;;;;;15.35;4.22;;;12.10;99.90;;;;;;5083737;28;20381;-69
2022/05/14 05:13:25;;;;;;;12.98;3.95;;;12.10;99.90;;;;;;5088601;28;20090;-68
2022/05/14 05:15:51;;;;;;;15.73;4.22;;;12.10;99.90;;;;;;5088286;28;20040;-69
2022/05/14 05:18:19;;;;;;;9.40;3.30;;;12.20;99.90;;;;;;5087593;28;20369;-68
2022/05/14 05:20:48;;;;;;;15.88;4.25;;;12.20;99.90;;;;;;5085127;28;20032;-68
2022/05/14 05:23:19;;;;;;;16.23;4.40;;;12.20;99.90;;;;;;5061804;28;20121;-68
2022/05/14 05:25:45;;;;;;;17.35;3.72;;;12.20;99.90;;;;;;5083900;28;20024;-68
2022/05/14 05:28:11;;;;;;;18.13;3.53;;;12.30;99.90;;;;;;5070747;28;20070;-67
2022/05/14 05:30:37;;;;;;;13.85;3.83;;;12.30;99.90;;;;;;5089831;28;20071;-69
2022/05/14 05:33:03;;;;;;;13.52;4.03;;;12.30;99.90;;;;;;5090139;28;20035;-69
2022/05/14 05:35:28;;;;;;;13.90;3.88;;;12.40;99.90;;;;;;5049872;28;20404;-67
2022/05/14 05:37:54;;;;;;;13.80;3.87;;;12.40;99.90;;;;;;5055190;28;20448;-69
2022/05/14 05:40:20;;;;;;;10.65;3.63;;;12.50;99.90;;;;;;5068747;28;20328;-68
2022/05/14 05:42:46;;;;;;;19.30;4.13;;;12.50;99.90;;;;;;5085788;28;20036;-68
2022/05/14 05:45:13;;;;;;;14.82;3.80;;;12.60;99.90;;;;;;5072848;28;20041;-68
2022/05/14 05:47:39;;;;;;;15.15;3.75;;;12.60;99.90;;;;;;5051463;28;20071;-68
2022/05/14 05:50:06;;;;;;;18.63;3.58;;;12.70;99.90;;;;;;5086996;28;20098;-68
2022/05/14 05:52:34;;;;;;;;;;;12.70;99.90;;;;;;5068008;28;20044;-68
2022/05/14 05:57:44;;;;;;;11.20;3.83;;;12.80;99.90;;;;;;5089412;28;20036;-69
2022/05/14 06:00:18;;;;;;;14.45;3.58;;;12.80;99.90;;;;;;5087903;28;20035;-68
2022/05/14 06:02:46;;;;;;;12.15;3.40;;;12.90;99.90;;;;;;5083456;28;20491;-69
2022/05/14 06:05:15;;;;;;;12.02;3.58;;;12.90;99.90;;;;;;5068512;28;20471;-68
2022/05/14 06:07:41;;;;;;;15.07;3.35;;;13.00;99.90;;;;;;5053332;28;20069;-68
2022/05/14 06:10:10;;;;;;;9.77;3.00;;;13.00;99.90;;;;;;5078245;28;20473;-67
2022/05/14 06:12:38;;;;;;;18.40;3.97;;;13.10;99.90;;;;;;5067498;28;20116;-69
2022/05/14 06:15:06;;;;;;;20.25;4.18;;;13.10;99.90;;;;;;5084331;28;20032;-67
2022/05/14 06:17:31;;;;;;;17.27;3.30;;;13.20;99.90;;;;;;5067501;28;20036;-68
2022/05/14 06:19:57;;;;;;;13.70;3.83;;;13.20;99.90;;;;;;5085878;28;20055;-68
2022/05/14 06:22:22;;;;;;;10.73;3.07;;;13.30;99.90;;;;;;5083604;28;20460;-68
2022/05/14 06:24:48;;;;;;;14.73;2.67;;;13.40;99.90;;;;;;5077059;28;20044;-67
2022/05/14 06:27:14;;;;;;;12.63;3.13;;;13.40;99.90;;;;;;5085920;28;20305;-68
2022/05/14 06:29:39;;;;;;;19.97;5.97;;;13.50;99.90;;;;;;5081618;28;20638;-67
2022/05/14 06:32:05;;;;;;;12.38;2.83;;;13.60;99.90;;;;;;5083566;28;20412;-69
2022/05/14 06:34:31;;;;;;;11.07;3.58;;;13.70;99.90;;;;;;5078314;28;20039;-65
2022/05/14 06:36:57;;;;;;;12.37;3.00;;;13.70;99.90;;;;;;5088007;28;20036;-67
2022/05/14 06:39:22;;;;;;;12.02;2.92;;;13.80;99.90;;;;;;5076764;28;20032;-67
2022/05/14 06:41:48;;;;;;;12.50;2.60;;;13.90;99.90;;;;;;5058910;28;20048;-66
2022/05/14 06:44:14;;;;;;;9.50;3.00;;;14.00;99.90;;;;;;5070089;28;20068;-68
2022/05/14 06:46:40;;;;;;;12.32;2.88;;;14.00;99.90;;;;;;5056158;28;20040;-68
2022/05/14 06:49:06;;;;;;;11.05;3.70;;;14.10;99.90;;;;;;5070969;28;20468;-68
2022/05/14 06:51:33;;;;;;;10.88;2.90;;;14.20;99.90;;;;;;5082328;28;20127;-66
2022/05/14 06:54:06;;;;;;;10.43;2.65;;;14.20;99.90;;;;;;5074314;28;20035;-67
2022/05/14 06:56:34;;;;;;;12.07;3.28;;;14.30;99.90;;;;;;5045767;28;20293;-68
2022/05/14 06:59:00;;;;;;;9.02;2.42;;;14.20;99.90;;;;;;5064317;28;20076;-67
2022/05/14 07:01:28;;;;;;;10.52;2.90;;;14.30;99.90;;;;;;5080961;28;20492;-67
2022/05/14 07:06:41;;;;;;;11.80;2.17;;;14.30;99.90;;;;;;5082997;28;20126;-67
2022/05/14 07:09:14;;;;;;;10.75;3.35;;;14.40;99.90;;;;;;5061281;28;20075;-67
2022/05/14 07:11:42;;;;;;;11.07;2.50;;;14.40;99.90;;;;;;5076537;28;20079;-68
2022/05/14 07:14:10;;;;;;;14.40;3.20;;;14.50;99.90;;;;;;5084387;28;20034;-68
2022/05/14 07:16:36;;;;;;;12.43;2.10;;;14.50;99.90;;;;;;5080247;28;20043;-68
2022/05/14 07:19:02;;;;;;;15.35;2.85;;;14.50;99.90;;;;;;5058770;28;20038;-68
2022/05/14 07:21:27;;;;;;;11.00;2.33;;;14.60;99.90;;;;;;5079234;28;20036;-68
2022/05/14 07:23:53;;;;;;;5.90;2.08;;;14.60;99.90;;;;;;5033187;28;20631;-68
2022/05/14 07:26:19;;;;;;;11.13;2.70;;;14.70;99.90;;;;;;5076546;28;20051;-67
2022/05/14 07:28:45;;;;;;;12.10;2.20;;;14.70;99.90;;;;;;5070240;28;20543;-68
2022/05/14 07:31:10;;;;;;;6.87;2.23;;;14.70;99.90;;;;;;5076122;28;20028;-68
2022/05/14 07:33:36;;;;;;;9.40;2.45;;;14.80;99.90;;;;;;5065850;28;20341;-68
2022/05/14 07:36:12;;;;;;;11.90;2.55;;;14.80;99.90;;;;;;5061828;28;20085;-71
2022/05/14 07:38:39;;;;;;;6.88;2.45;;;14.80;99.90;;;;;;5038297;28;20029;-67
2022/05/14 07:41:06;;;;;;;12.70;2.92;;;14.90;99.90;;;;;;5062247;28;20104;-67
2022/05/14 07:43:36;;;;;;;11.05;3.17;;;14.90;99.90;;;;;;5076717;28;20044;-67
2022/05/14 07:46:07;;;;;;;13.65;3.53;;;15.00;99.90;;;;;;5062572;28;20504;-68
2022/05/14 07:48:36;;;;;;;9.07;2.42;;;15.10;99.90;;;;;;5087074;28;20044;-67
2022/05/14 07:51:05;;;;;;;13.20;2.42;;;15.10;99.90;;;;;;5083668;28;20075;-66
2022/05/14 07:53:31;;;;;;;11.15;2.70;;;15.10;99.90;;;;;;5060399;28;20504;-68
2022/05/14 07:56:02;;;;;;;11.35;3.45;;;15.20;99.90;;;;;;5080696;28;20039;-68
2022/05/14 07:58:28;;;;;;;8.80;2.35;;;15.30;99.90;;;;;;5081610;28;20654;-68
2022/05/14 08:00:58;;;;;;;13.07;2.50;;;15.40;99.90;;;;;;5069763;28;20053;-68
2022/05/14 08:03:24;;;;;;;7.47;2.17;;;15.40;99.90;;;;;;5078019;28;20040;-72
2022/05/14 08:05:54;;;;;;;15.52;3.15;;;15.50;99.90;;;;;;5052898;28;20036;-71
2022/05/14 08:08:20;;;;;;;10.43;2.38;;;15.50;99.90;;;;;;5063074;28;20540;-70
2022/05/14 08:10:46;;;;;;;14.55;2.47;;;15.50;99.90;;;;;;5058613;28;20040;-68
2022/05/14 08:13:16;;;;;;;7.68;2.50;;;15.50;99.90;;;;;;5070593;28;20046;-69
2022/05/14 08:15:42;;;;;;;12.07;2.53;;;15.50;99.90;;;;;;5053089;28;20038;-69
2022/05/14 08:18:08;;;;;;;10.90;2.47;;;15.50;99.90;;;;;;5066437;28;20062;-69
2022/05/14 08:20:34;;;;;;;9.55;2.70;;;15.60;99.90;;;;;;5077569;28;20037;-69
2022/05/14 08:25:44;;;;;;;11.10;2.83;;;15.70;99.90;;;;;;5075170;28;20292;-69
2022/05/14 08:28:10;;;;;;;9.00;2.00;;;15.70;99.90;;;;;;5076901;28;20204;-71
2022/05/14 08:30:36;;;;;;;12.18;2.78;;;15.80;99.90;;;;;;5065162;28;20043;-69
2022/05/14 08:33:04;;;;;;;8.68;2.47;;;15.80;99.90;;;;;;5063682;28;20119;-69
2022/05/14 08:35:31;;;;;;;10.80;2.88;;;15.80;99.90;;;;;;5082383;28;20070;-69
2022/05/14 08:37:57;;;;;;;12.80;2.25;;;15.90;99.90;;;;;;5081200;28;20036;-70
2022/05/14 08:40:28;;;;;;;17.85;2.88;;;16.00;99.90;;;;;;5069196;28;20040;-69
2022/05/14 08:42:58;;;;;;;11.85;2.97;;;16.10;99.90;;;;;;5141094;22;20144;-69
2022/05/14 08:45:26;;;;;;;11.60;2.42;;;16.20;99.90;;;;;;5056797;28;21920;-69
2022/05/14 08:47:57;;;;;;;15.23;2.45;;;16.20;99.90;;;;;;5035715;28;20091;-69
2022/05/14 08:50:26;;;;;;;10.57;2.90;;;16.30;99.90;;;;;;5032187;28;20037;-69
2022/05/14 08:53:00;;;;;;;8.52;2.10;;;16.30;99.90;;;;;;5040585;28;20440;-71
2022/05/14 08:55:33;;;;;;;10.10;2.30;;;16.40;99.90;;;;;;5011647;28;20071;-70
2022/05/14 08:58:06;;;;;;;15.70;3.42;;;16.40;99.90;;;;;;5044414;28;20127;-70
2022/05/14 09:00:32;;;;;;;11.98;2.88;;;16.50;99.90;;;;;;5021856;28;20425;-68
2022/05/14 09:02:57;;;;;;;12.38;3.00;;;16.60;99.90;;;;;;5019561;28;20056;-68
2022/05/14 09:05:28;;;;;;;8.02;2.25;;;16.80;99.90;;;;;;5047820;28;20346;-68
2022/05/14 09:07:54;;;;;;;13.43;2.80;;;16.90;99.90;;;;;;5027902;28;20061;-67
2022/05/14 09:10:35;;;;;;;14.23;2.80;;;17.00;99.90;;;;;;5014849;28;20220;-67
2022/05/14 09:13:22;;;;;;;14.93;3.80;;;17.10;99.90;;;;;;5010205;28;20040;-68
2022/05/14 09:15:52;;;;;;;21.90;2.58;;;17.30;99.90;;;;;;5033556;28;20033;-67
2022/05/14 09:18:34;;;;;;;10.15;2.63;;;17.30;99.90;;;;;;5040754;28;20025;-69
2022/05/14 09:21:02;;;;;;;8.02;2.67;;;17.50;99.90;;;;;;5039535;28;20037;-68
2022/05/14 09:24:00;;;;;;;10.40;3.28;;;17.60;99.90;;;;;;5042248;28;20043;-68
2022/05/14 09:26:37;;;;;;;12.48;2.70;;;17.70;99.90;;;;;;5026289;28;20128;-68
2022/05/14 09:29:24;;;;;;;14.23;2.33;;;17.70;99.90;;;;;;5041600;28;20115;-68
2022/05/14 09:32:16;;;;;;;10.98;2.58;;;17.70;99.90;;;;;;5042663;28;20037;-68
2022/05/14 09:34:42;;;;;;;16.15;2.47;;;17.60;99.90;;;;;;5043987;28;20094;-68
2022/05/14 09:37:16;;;;;;;12.45;3.08;;;17.50;99.90;;;;;;5015294;28;20033;-68
2022/05/14 09:39:41;;;;;;;10.35;2.67;;;17.50;99.90;;;;;;5042611;28;20038;-68
2022/05/14 09:42:25;;;;;;;10.63;3.13;;;17.50;99.90;;;;;;5036018;28;20432;-67
2022/05/14 09:44:54;;;;;;;9.75;2.88;;;17.70;99.90;;;;;;5027198;28;20094;-68
2022/05/14 09:47:31;;;;;;;13.75;3.00;;;17.90;99.90;;;;;;5026687;28;20076;-67
2022/05/14 09:50:03;;;;;;;14.40;3.28;;;17.90;99.90;;;;;;5043736;28;20596;-68
2022/05/14 09:52:33;;;;;;;15.93;3.20;;;18.00;99.90;;;;;;5038469;28;20405;-68
2022/05/14 09:55:04;;;;;;;9.93;2.30;;;18.00;99.90;;;;;;5040172;28;20094;-68
2022/05/14 09:57:41;;;;;;;7.53;2.65;;;18.10;99.90;;;;;;5043299;28;20045;-68
2022/05/14 10:00:21;;;;;;;11.68;2.72;;;18.30;99.90;;;;;;5042942;28;20037;-69
2022/05/14 10:03:06;;;;;;;8.68;2.53;;;18.40;99.90;;;;;;5030917;28;20102;-68
2022/05/14 10:05:51;;;;;;;10.35;3.08;;;18.50;97.10;;;;;;5041053;28;20034;-69
2022/05/14 10:08:22;;;;;;;13.13;3.10;;;18.60;99.90;;;;;;5028150;28;20044;-68
2022/05/14 10:11:20;;;;;;;9.52;2.75;;;18.70;99.90;;;;;;5011687;28;20040;-69
2022/05/14 10:14:07;;;;;;;9.77;3.08;;;18.70;90.80;;;;;;5034284;28;20106;-69
2022/05/14 10:16:36;;;;;;;13.27;3.67;;;18.70;96.50;;;;;;5028729;28;20516;-69
2022/05/14 10:19:23;;;;;;;9.88;3.20;;;18.80;99.90;;;;;;5049255;28;20032;-70
2022/05/14 10:22:00;;;;;;;10.40;3.28;;;18.90;97.60;;;;;;5043841;28;20508;-70
2022/05/14 10:27:37;;;;;;;11.30;2.88;;;19.00;92.30;;;;;;5036751;28;20390;-69
2022/05/14 10:30:25;;;;;;;8.27;2.58;;;19.00;94.30;;;;;;5035372;28;20500;-70
2022/05/14 10:33:02;;;;;;;10.07;2.70;;;19.00;95.80;;;;;;5039215;28;20044;-69
2022/05/14 10:35:35;;;;;;;12.10;2.63;;;18.80;94.70;;;;;;5038966;28;20043;-69
2022/05/14 10:38:14;;;;;;;13.98;2.90;;;18.80;97.00;;;;;;5020030;28;20354;-70
2022/05/14 10:40:48;;;;;;;10.95;2.47;;;18.70;92.70;;;;;;5028680;28;20037;-71
2022/05/14 10:43:19;;;;;;;13.95;2.70;;;18.70;88.40;;;;;;5020804;28;20080;-72
2022/05/14 10:45:47;;;;;;;9.40;2.83;;;18.70;91.80;;;;;;5030394;28;20041;-70
2022/05/14 10:48:32;;;;;;;7.28;2.28;;;18.80;91.40;;;;;;5029151;28;20065;-69
2022/05/14 10:50:59;;;;;;;12.80;2.58;;;18.80;93.30;;;;;;5016516;28;20577;-70
2022/05/14 10:53:25;;;;;;;14.38;3.05;;;19.00;94.40;;;;;;5027656;28;20049;-69
2022/05/14 10:55:59;;;;;;;10.75;2.78;;;19.10;93.70;;;;;;5028763;28;20047;-68
2022/05/14 10:58:45;;;;;;;10.25;2.50;;;19.20;92.90;;;;;;5020919;28;20060;-72
2022/05/14 11:01:31;;;;;;;15.35;2.95;;;19.30;91.60;;;;;;5024759;28;20090;-74
2022/05/14 11:04:11;;;;;;;13.20;2.97;;;19.40;77.30;;;;;;5012590;28;20041;-66
2022/05/14 11:06:54;;;;;;;9.82;2.67;;;19.50;76.00;;;;;;5043319;28;20489;-67
2022/05/14 11:09:46;;;;;;;10.75;2.88;;;19.50;74.00;;;;;;5042819;28;20232;-68
2022/05/14 11:12:33;;;;;;;12.45;2.85;;;19.40;74.70;;;;;;5015256;28;20109;-73
2022/05/14 11:15:01;;;;;;;11.02;2.60;;;19.50;78.10;;;;;;5005191;28;20051;-72
2022/05/14 11:17:30;;;;;;;9.82;2.55;;;19.50;76.20;;;;;;5022107;28;20052;-73
2022/05/14 11:20:04;;;;;;;12.20;2.50;;;19.50;74.50;;;;;;5034526;28;20477;-73
2022/05/14 11:22:58;;;;;;;9.07;2.03;;;19.40;70.80;;;;;;5026417;28;20204;-73
2022/05/14 11:25:26;;;;;;;8.15;2.72;;;19.50;76.30;;;;;;5042515;28;20033;-73
2022/05/14 11:28:09;;;;;;;12.93;2.58;;;19.60;78.50;;;;;;5025232;28;20059;-73
2022/05/14 11:30:50;;;;;;;10.88;2.35;;;19.80;73.60;;;;;;5007592;28;20239;-70
2022/05/14 11:33:28;;;;;;;10.02;2.45;;;19.90;65.90;;;;;;5029718;28;20041;-69
2022/05/14 11:35:57;;;;;;;15.00;3.25;;;19.90;73.50;;;;;;5025092;28;20068;-69
2022/05/14 11:38:26;;;;;;;8.98;2.90;;;20.10;66.00;;;;;;5030028;28;20598;-72
2022/05/14 11:41:13;;;;;;;12.18;2.60;;;20.20;68.40;;;;;;4989064;28;20544;-69
2022/05/14 11:43:49;;;;;;;;;;;20.40;66.80;;;;;;5009974;28;20037;-69
2022/05/14 11:46:39;;;;;;;10.02;3.00;;;20.50;65.00;;;;;;5001379;28;20260;-69
2022/05/14 11:49:14;;;;;;;8.95;2.33;;;20.40;63.30;;;;;;5034913;28;20160;-68
2022/05/14 11:51:56;;;;;;;15.95;2.97;;;20.20;64.00;;;;;;5022705;28;20405;-67
2022/05/14 11:55:04;;;;;;;9.57;2.30;;;20.10;65.40;;;;;;5002064;28;20117;-69
2022/05/14 11:57:40;;;;;;;9.90;2.38;;;20.20;68.70;;;;;;5001465;28;20054;-75
2022/05/14 12:00:12;;;;;;;13.43;2.50;;;20.30;69.00;;;;;;5010457;28;20040;-73
2022/05/14 12:02:48;;;;;;;8.32;2.58;;;20.50;69.80;;;;;;5028312;28;20040;-72
2022/05/14 12:05:18;;;;;;;7.57;2.53;;;20.60;67.70;;;;;;5024396;28;20119;-73
2022/05/14 12:08:05;;;;;;;12.45;3.42;;;20.70;67.60;;;;;;5025053;28;20286;-72
2022/05/14 12:11:14;;;;;;;8.40;2.35;;;20.70;67.80;;;;;;5025075;28;20033;-72
2022/05/14 12:13:52;;;;;;;8.88;2.67;;;20.80;65.10;;;;;;5029909;28;20602;-72
2022/05/14 12:16:41;;;;;;;10.30;3.63;;;20.70;64.80;;;;;;5011911;28;20272;-72
2022/05/14 12:19:14;;;;;;;10.80;2.42;;;20.70;63.00;;;;;;5019801;28;20297;-73
2022/05/14 12:21:41;;;;;;;9.90;2.72;;;20.70;65.80;;;;;;5028786;28;20220;-73
2022/05/14 12:24:22;;;;;;;10.90;2.53;;;20.60;63.10;;;;;;5020461;28;20095;-73
2022/05/14 12:26:48;;;;;;;11.45;2.67;;;20.50;61.50;;;;;;5026924;28;20037;-73
2022/05/14 12:29:19;;;;;;;9.35;2.92;;;20.60;65.00;;;;;;5030569;28;20033;-73
2022/05/14 12:34:37;;;;;;;11.30;3.05;;;21.00;65.00;;;;;;5042426;28;20485;-73
2022/05/14 12:37:14;;;;;;;12.93;2.70;;;21.10;64.00;;;;;;5044217;28;20474;-73
2022/05/14 12:39:42;;;;;;;12.82;2.63;;;21.20;64.30;;;;;;5022260;28;20442;-73
2022/05/14 12:42:09;;;;;;;12.90;2.92;;;21.40;63.50;;;;;;5032988;28;20045;-73
2022/05/14 12:44:41;;;;;;;10.93;2.35;;;21.10;60.00;;;;;;5033225;28;20040;-73
2022/05/14 12:47:08;;;;;;;11.75;2.22;;;20.90;61.40;;;;;;5026013;28;20052;-73
2022/05/14 12:49:42;;;;;;;12.30;2.78;;;20.70;61.70;;;;;;5043817;28;20108;-72
2022/05/14 12:52:32;;;;;;;8.95;2.10;;;20.60;61.40;;;;;;5019252;28;20412;-72
2022/05/14 12:55:14;;;;;;;9.32;2.70;;;20.60;63.10;;;;;;5023055;28;20045;-72
2022/05/14 12:57:46;;;;;;;10.73;2.70;;;20.80;59.30;;;;;;5027259;28;20067;-72
2022/05/14 13:00:15;;;;;;;9.35;2.78;;;20.80;61.80;;;;;;5046186;28;20032;-72
2022/05/14 13:02:46;;;;;;;12.18;2.65;;;20.80;62.20;;;;;;5031374;28;20044;-72
2022/05/14 13:05:22;;;;;;;7.03;2.67;;;20.80;62.70;;;;;;5010893;28;20120;-72
2022/05/14 13:08:19;;;;;;;9.45;2.70;;;20.90;62.40;;;;;;5046086;28;20052;-72
2022/05/14 13:10:54;;;;;;;9.93;2.00;;;20.80;61.30;;;;;;4994050;28;21035;-72
2022/05/14 13:13:31;;;;;;;7.75;2.30;;;20.70;60.80;;;;;;5038946;28;20378;-72
2022/05/14 13:15:57;;;;;;;12.77;2.60;;;20.80;62.50;;;;;;5045671;28;20509;-72